ěÝzenÝ letovÚho provozu ╚eskÚ republiky
Letiste: LKBC Aktualizace: 21.10.2021 10:25:28  UTC
 METAR LKBC 21.10. 10:30 ...
METAR LKBC 211030Z AUTO 24025G38KT 210V270 9999 FEW060 SCT100 16/04 Q1006=